Terminal Aerodrome Forecast
Issued by NWS

Home | Current Version | Previous Version | Text Only | Print | Product List | Glossary On
Versions: 1 2 3 4 5 6 7 8 9 10 11 12 13 14 15 16 17 18 19 20 21 22 23 24 25 26 27 28
000
FTUS41 KBOX 301737
TAFHYA
TAF
KHYA 301737Z 3018/3118 00000KT P6SM -RA BKN012 OVC045
     FM301900 27006KT P6SM OVC010
     FM302300 31010G20KT P6SM OVC010
     FM310400 32016G32KT 3SM -SN OVC025
     FM310600 32019G35KT 1SM -SN OVC025
     FM311300 32020G42KT P6SM OVC020=

USA.gov is the U.S. government's official web portal to all federal, state and local government web resources and services.